createdAt,value
2019-02-19T00:01:01.544Z,17.53
2019-02-19T00:03:30.186Z,16.33
2019-02-19T00:06:04.328Z,17.63
2019-02-19T00:12:02.114Z,17.70
2019-02-19T00:14:30.684Z,18.57
2019-02-19T00:16:59.257Z,17.33
2019-02-19T00:19:27.840Z,17.27
2019-02-19T00:21:56.405Z,17.27
2019-02-19T00:24:25.001Z,17.43
2019-02-19T00:26:53.577Z,17.70
2019-02-19T00:29:22.168Z,17.43
2019-02-19T00:31:51.500Z,16.03
2019-02-19T00:34:20.114Z,16.20
2019-02-19T00:36:48.669Z,17.53
2019-02-19T00:39:17.263Z,15.40
2019-02-19T00:41:45.828Z,15.57
2019-02-19T00:44:14.413Z,15.87
2019-02-19T00:46:42.981Z,16.20
2019-02-19T00:49:11.572Z,17.27
2019-02-19T00:51:40.141Z,15.97
2019-02-19T00:54:08.724Z,16.50
2019-02-19T00:56:37.285Z,17.87
2019-02-19T00:59:05.877Z,17.63
2019-02-19T01:01:34.448Z,17.83
2019-02-19T01:04:03.040Z,16.77
2019-02-19T01:06:31.605Z,19.47
2019-02-19T01:09:00.193Z,18.73
2019-02-19T01:11:28.765Z,17.77
2019-02-19T01:13:57.355Z,17.67
2019-02-19T01:16:25.988Z,17.13
2019-02-19T01:18:54.576Z,18.30
2019-02-19T01:21:23.145Z,17.60
2019-02-19T01:23:51.737Z,18.57
2019-02-19T01:26:20.879Z,16.07
2019-02-19T01:28:49.460Z,17.40
2019-02-19T01:31:18.027Z,17.57
2019-02-19T01:33:46.613Z,17.10
2019-02-19T01:36:15.249Z,16.67
2019-02-19T01:38:43.838Z,16.53
2019-02-19T01:41:12.404Z,16.00
2019-02-19T01:43:42.010Z,15.90
2019-02-19T01:46:10.573Z,16.90
2019-02-19T01:48:39.155Z,16.97
2019-02-19T01:51:07.795Z,15.70
2019-02-19T01:53:36.380Z,16.27
2019-02-19T01:56:05.047Z,17.10
2019-02-19T01:58:33.636Z,17.03
2019-02-19T02:01:02.261Z,17.17
2019-02-19T02:03:30.919Z,16.53
2019-02-19T02:05:59.499Z,17.87
2019-02-19T02:08:28.085Z,17.20
2019-02-19T02:10:56.659Z,18.93
2019-02-19T02:13:25.269Z,18.43
2019-02-19T02:15:53.917Z,19.70
2019-02-19T02:18:22.496Z,19.53
2019-02-19T02:20:51.157Z,20.07
2019-02-19T02:23:19.742Z,18.13
2019-02-19T02:25:48.325Z,17.63
2019-02-19T02:28:16.878Z,18.97
2019-02-19T02:30:45.572Z,17.47
2019-02-19T02:33:14.137Z,19.53
2019-02-19T02:35:42.727Z,19.87
2019-02-19T02:38:11.285Z,18.53
2019-02-19T02:40:39.894Z,17.73
2019-02-19T02:43:08.452Z,20.53
2019-02-19T02:45:37.031Z,18.60
2019-02-19T02:48:05.623Z,18.50
2019-02-19T02:50:34.272Z,19.27
2019-02-19T02:53:02.881Z,18.92
2019-02-19T02:55:31.474Z,18.23
2019-02-19T02:58:00.023Z,18.23
2019-02-19T03:00:28.632Z,18.23
2019-02-19T03:02:57.198Z,17.67
2019-02-19T03:05:25.779Z,20.40
2019-02-19T03:07:56.010Z,18.77
2019-02-19T03:10:24.612Z,17.40
2019-02-19T03:12:53.196Z,19.67
2019-02-19T03:15:21.824Z,19.82
2019-02-19T03:17:50.384Z,17.00
2019-02-19T03:20:18.977Z,19.13
2019-02-19T03:22:47.536Z,19.07
2019-02-19T03:25:16.124Z,17.63
2019-02-19T03:27:44.683Z,19.70
2019-02-19T03:30:13.358Z,17.60
2019-02-19T03:32:42.019Z,19.90
2019-02-19T03:35:10.688Z,20.43
2019-02-19T03:37:39.239Z,19.17
2019-02-19T03:40:08.673Z,21.23
2019-02-19T03:42:37.612Z,20.77
2019-02-19T03:45:08.432Z,21.57
2019-02-19T03:47:36.991Z,21.33
2019-02-19T03:50:06.415Z,20.70
2019-02-19T03:52:34.980Z,18.10
2019-02-19T03:55:03.731Z,19.60
2019-02-19T03:57:32.661Z,18.60
2019-02-19T04:00:01.316Z,18.27
2019-02-19T04:02:29.942Z,17.67
2019-02-19T04:04:58.644Z,17.37
2019-02-19T04:07:27.197Z,17.43
2019-02-19T04:09:55.783Z,17.80
2019-02-19T04:12:24.340Z,18.03
2019-02-19T04:14:52.920Z,18.73
2019-02-19T04:17:21.483Z,17.10
2019-02-19T04:19:50.063Z,16.57
2019-02-19T04:22:18.644Z,18.13
2019-02-19T04:24:47.232Z,16.67
2019-02-19T04:27:15.820Z,18.93
2019-02-19T04:29:44.382Z,17.23
2019-02-19T04:32:12.983Z,17.57
2019-02-19T04:34:41.568Z,17.27
2019-02-19T04:37:10.176Z,15.60
2019-02-19T04:39:38.734Z,17.13
2019-02-19T04:42:07.336Z,16.60
2019-02-19T04:44:35.900Z,16.07
2019-02-19T04:47:04.549Z,17.17
2019-02-19T04:49:33.120Z,17.07
2019-02-19T04:52:01.709Z,16.70
2019-02-19T04:54:30.265Z,18.43
2019-02-19T04:56:58.876Z,15.93
2019-02-19T04:59:27.441Z,17.37
2019-02-19T05:01:56.020Z,17.63
2019-02-19T05:04:24.577Z,18.63
2019-02-19T05:06:53.164Z,18.02
2019-02-19T05:09:21.737Z,16.70
2019-02-19T05:11:50.352Z,17.30
2019-02-19T05:14:18.905Z,16.37
2019-02-19T05:16:47.497Z,17.83
2019-02-19T05:19:16.081Z,16.23
2019-02-19T05:21:44.678Z,18.57
2019-02-19T05:24:13.256Z,16.67
2019-02-19T05:26:41.833Z,18.50
2019-02-19T05:29:10.400Z,18.57
2019-02-19T05:31:39.059Z,17.17
2019-02-19T05:34:07.632Z,17.77
2019-02-19T05:36:36.204Z,17.77
2019-02-19T05:39:06.028Z,18.40
2019-02-19T05:41:34.640Z,18.43
2019-02-19T05:44:03.213Z,19.83
2019-02-19T05:46:31.826Z,18.82
2019-02-19T05:49:00.383Z,18.90
2019-02-19T05:51:29.061Z,18.27
2019-02-19T05:53:57.755Z,19.77
2019-02-19T05:56:26.309Z,17.60
2019-02-19T05:58:54.863Z,18.03
2019-02-19T06:01:23.456Z,18.50
2019-02-19T06:03:52.101Z,18.03
2019-02-19T06:06:20.683Z,18.37
2019-02-19T06:08:49.253Z,18.52
2019-02-19T06:11:17.862Z,18.30
2019-02-19T06:13:46.422Z,17.87
2019-02-19T06:16:15.012Z,18.25
2019-02-19T06:18:43.572Z,20.25
2019-02-19T06:21:12.155Z,18.37
2019-02-19T06:23:40.732Z,21.97
2019-02-19T06:26:09.319Z,21.37
2019-02-19T06:28:37.879Z,20.83
2019-02-19T06:31:06.468Z,21.90
2019-02-19T06:33:35.029Z,21.83
2019-02-19T06:36:03.687Z,24.87
2019-02-19T06:38:32.256Z,25.40
2019-02-19T06:41:02.008Z,25.60
2019-02-19T06:43:30.789Z,23.45
2019-02-19T06:45:59.385Z,21.23
2019-02-19T06:48:27.953Z,22.80
2019-02-19T06:50:56.515Z,22.37
2019-02-19T06:53:25.128Z,20.57
2019-02-19T06:55:53.686Z,18.70
2019-02-19T06:58:22.337Z,19.97
2019-02-19T07:00:50.991Z,19.10
2019-02-19T07:03:21.204Z,17.83
2019-02-19T07:05:49.815Z,21.90
2019-02-19T07:08:18.360Z,17.93
2019-02-19T07:10:46.925Z,18.10
2019-02-19T07:13:15.569Z,19.43
2019-02-19T07:15:44.212Z,18.60
2019-02-19T07:18:12.795Z,18.47
2019-02-19T07:20:41.368Z,18.50
2019-02-19T07:23:09.954Z,17.13
2019-02-19T07:25:38.581Z,18.33
2019-02-19T07:28:07.166Z,17.40
2019-02-19T07:30:35.724Z,19.23
2019-02-19T07:33:04.378Z,24.53
2019-02-19T07:35:32.959Z,17.37
2019-02-19T07:38:01.528Z,19.30
2019-02-19T07:40:30.088Z,19.77
2019-02-19T07:42:58.668Z,21.60
2019-02-19T07:45:27.220Z,25.30
2019-02-19T07:47:55.797Z,22.90
2019-02-19T07:50:24.351Z,21.73
2019-02-19T07:52:52.938Z,20.10
2019-02-19T07:55:21.511Z,19.90
2019-02-19T07:57:50.107Z,18.53
2019-02-19T08:00:18.659Z,18.83
2019-02-19T08:02:47.244Z,19.33
2019-02-19T08:05:15.792Z,20.53
2019-02-19T08:07:44.372Z,20.40
2019-02-19T08:10:13.228Z,19.20
2019-02-19T08:12:41.806Z,18.60
2019-02-19T08:15:11.607Z,18.80
2019-02-19T08:17:40.323Z,19.23
2019-02-19T08:20:15.924Z,18.33
2019-02-19T08:22:40.087Z,18.57
2019-02-19T08:25:08.699Z,18.80
2019-02-19T08:27:37.312Z,18.47
2019-02-19T08:30:08.671Z,17.63
2019-02-19T08:32:37.288Z,19.47
2019-02-19T08:35:07.216Z,17.53
2019-02-19T08:37:35.797Z,19.67
2019-02-19T08:40:05.288Z,18.40
2019-02-19T08:42:33.876Z,18.07
2019-02-19T08:45:02.502Z,18.00
2019-02-19T08:47:31.103Z,18.40
2019-02-19T08:49:59.686Z,18.57
2019-02-19T08:52:28.265Z,18.07
2019-02-19T08:54:56.896Z,15.80
2019-02-19T08:57:25.465Z,17.30
2019-02-19T08:59:54.049Z,17.57
2019-02-19T09:02:25.436Z,17.80
2019-02-19T09:04:54.021Z,17.13
2019-02-19T09:07:22.613Z,18.00
2019-02-19T09:09:51.183Z,17.97
2019-02-19T09:12:19.743Z,18.67
2019-02-19T09:14:49.442Z,16.70
2019-02-19T09:17:17.996Z,17.70
2019-02-19T09:19:46.670Z,16.67
2019-02-19T09:22:15.224Z,17.17
2019-02-19T09:24:43.817Z,16.77
2019-02-19T09:27:12.400Z,15.93
2019-02-19T09:29:40.984Z,15.87
2019-02-19T09:32:09.551Z,16.20
2019-02-19T09:34:38.135Z,15.40
2019-02-19T09:37:06.737Z,14.17
2019-02-19T09:39:35.339Z,16.37
2019-02-19T09:42:04.052Z,15.23
2019-02-19T09:44:32.628Z,15.77
2019-02-19T09:47:01.204Z,16.13
2019-02-19T09:49:29.780Z,15.90
2019-02-19T09:51:58.371Z,16.67
2019-02-19T09:54:26.961Z,16.23
2019-02-19T09:56:55.592Z,15.70
2019-02-19T09:59:24.205Z,15.87
2019-02-19T10:01:52.764Z,16.53
2019-02-19T10:04:21.340Z,15.53
2019-02-19T10:06:49.905Z,15.00
2019-02-19T10:09:18.484Z,16.67
2019-02-19T10:11:47.116Z,15.63
2019-02-19T10:14:15.691Z,14.23
2019-02-19T10:16:44.272Z,13.73
2019-02-19T10:19:12.857Z,14.67
2019-02-19T10:21:41.433Z,14.50
2019-02-19T10:24:09.993Z,14.83
2019-02-19T10:26:38.567Z,14.23
2019-02-19T10:29:07.120Z,14.27
2019-02-19T10:31:35.704Z,13.53
2019-02-19T10:34:04.331Z,12.50
2019-02-19T10:36:32.944Z,13.33
2019-02-19T10:39:01.517Z,13.20
2019-02-19T10:41:30.093Z,13.87
2019-02-19T10:43:58.664Z,13.43
2019-02-19T10:46:27.300Z,13.13
2019-02-19T10:48:55.859Z,14.90
2019-02-19T10:51:24.450Z,13.50
2019-02-19T10:53:53.108Z,14.80
2019-02-19T10:56:21.776Z,14.60
2019-02-19T10:58:50.361Z,14.17
2019-02-19T11:01:19.004Z,14.50
2019-02-19T11:03:47.628Z,15.13
2019-02-19T11:06:16.237Z,13.80
2019-02-19T11:08:44.783Z,12.97
2019-02-19T11:11:13.364Z,13.93
2019-02-19T11:13:41.991Z,13.07
2019-02-19T11:16:10.596Z,13.47
2019-02-19T11:18:39.160Z,14.70
2019-02-19T11:21:07.816Z,13.23
2019-02-19T11:23:36.404Z,12.83
2019-02-19T11:26:05.099Z,12.70
2019-02-19T11:28:33.669Z,12.47
2019-02-19T11:31:02.284Z,12.90
2019-02-19T11:33:30.839Z,12.23
2019-02-19T11:35:59.389Z,12.40
2019-02-19T11:38:27.975Z,11.93
2019-02-19T11:40:56.536Z,12.97
2019-02-19T11:43:25.115Z,12.80
2019-02-19T11:45:53.690Z,14.47
2019-02-19T11:48:22.276Z,13.10
2019-02-19T11:50:50.902Z,13.47
2019-02-19T11:53:19.480Z,12.63
2019-02-19T11:55:48.045Z,13.67
2019-02-19T11:58:16.639Z,13.03
2019-02-19T12:00:45.664Z,12.27
2019-02-19T12:03:14.261Z,12.17
2019-02-19T12:05:42.812Z,9.97
2019-02-19T12:08:11.393Z,12.93
2019-02-19T12:10:39.950Z,11.33
2019-02-19T12:13:08.599Z,13.17
2019-02-19T12:15:37.183Z,12.23
2019-02-19T12:18:05.899Z,11.73
2019-02-19T12:20:34.477Z,11.57
2019-02-19T12:23:03.064Z,12.20
2019-02-19T12:25:31.624Z,12.10
2019-02-19T12:28:00.250Z,11.37
2019-02-19T12:30:28.848Z,12.90
2019-02-19T12:32:57.434Z,12.47
2019-02-19T12:35:26.080Z,12.60
2019-02-19T12:37:54.652Z,11.30
2019-02-19T12:40:23.287Z,11.70
2019-02-19T12:42:51.890Z,12.10
2019-02-19T12:45:20.539Z,11.27
2019-02-19T12:47:49.115Z,12.47
2019-02-19T12:50:18.940Z,11.70
2019-02-19T12:52:47.516Z,12.87
2019-02-19T12:55:16.100Z,11.80
2019-02-19T12:57:44.690Z,11.13
2019-02-19T13:00:17.827Z,11.47
2019-02-19T13:02:46.398Z,11.27
2019-02-19T13:05:15.804Z,10.87
2019-02-19T13:07:44.424Z,11.57
2019-02-19T13:10:13.202Z,11.20
2019-02-19T13:12:41.835Z,10.53
2019-02-19T13:15:15.410Z,9.67
2019-02-19T13:17:43.972Z,9.40
2019-02-19T13:20:14.120Z,10.40
2019-02-19T13:22:42.811Z,9.93
2019-02-19T13:25:12.168Z,10.47
2019-02-19T13:27:40.787Z,10.30
2019-02-19T13:30:21.168Z,11.37
2019-02-19T13:32:49.751Z,11.50
2019-02-19T13:35:18.346Z,12.07
2019-02-19T13:37:47.071Z,13.03
2019-02-19T13:40:21.772Z,13.33
2019-02-19T13:42:50.334Z,12.80
2019-02-19T13:45:18.920Z,13.43
2019-02-19T13:47:47.498Z,12.40
2019-02-19T13:50:26.442Z,13.70
2019-02-19T13:53:02.800Z,11.70
2019-02-19T13:55:33.083Z,12.47
2019-02-19T13:58:01.716Z,11.60
2019-02-19T14:00:32.040Z,10.60
2019-02-19T14:03:00.998Z,11.97
2019-02-19T14:05:29.531Z,11.07
2019-02-19T14:07:58.236Z,10.40
2019-02-19T14:10:26.927Z,9.53
2019-02-19T14:12:59.626Z,11.27
2019-02-19T14:15:46.238Z,10.07
2019-02-19T14:18:16.552Z,10.90
2019-02-19T14:20:52.501Z,10.10
2019-02-19T14:23:22.699Z,11.00
2019-02-19T14:25:52.944Z,10.53
2019-02-19T14:28:25.751Z,10.77
2019-02-19T14:31:04.579Z,11.87
2019-02-19T14:33:37.241Z,11.97
2019-02-19T14:36:10.650Z,11.03
2019-02-19T14:38:40.860Z,11.07
2019-02-19T14:41:11.083Z,10.73
2019-02-19T14:43:46.837Z,10.33
2019-02-19T14:46:22.820Z,10.97
2019-02-19T14:48:55.547Z,10.80
2019-02-19T14:51:31.647Z,11.73
2019-02-19T14:54:01.864Z,11.20
2019-02-19T14:56:32.084Z,11.03
2019-02-19T15:02:09.566Z,12.73
2019-02-19T15:04:42.982Z,13.23
2019-02-19T15:07:13.555Z,11.47
2019-02-19T15:09:52.913Z,10.13
2019-02-19T15:12:23.133Z,11.47
2019-02-19T15:18:16.257Z,9.67
2019-02-19T15:20:55.746Z,10.90
2019-02-19T15:23:25.968Z,9.47
2019-02-19T15:25:58.951Z,9.63
2019-02-19T15:28:41.167Z,9.70
2019-02-19T15:31:27.548Z,10.87
2019-02-19T15:33:57.747Z,10.87
2019-02-19T15:36:36.914Z,10.10
2019-02-19T15:39:13.581Z,9.77
2019-02-19T15:41:46.796Z,11.60
2019-02-19T15:44:20.074Z,11.63
2019-02-19T15:46:50.287Z,11.50
2019-02-19T15:49:29.551Z,11.53
2019-02-19T15:52:16.058Z,11.73
2019-02-19T15:55:01.577Z,11.23
2019-02-19T15:57:31.841Z,10.87
2019-02-19T16:00:18.541Z,11.23
2019-02-19T16:02:48.833Z,11.37
2019-02-19T16:05:31.292Z,13.30
2019-02-19T16:08:01.535Z,12.87
2019-02-19T16:10:34.742Z,12.77
2019-02-19T16:13:13.915Z,13.73
2019-02-19T16:18:42.387Z,12.37
2019-02-19T16:21:12.724Z,11.77
2019-02-19T16:23:45.987Z,12.47
2019-02-19T16:26:34.296Z,11.73
2019-02-19T16:29:07.299Z,12.60
2019-02-19T16:31:43.676Z,13.23
2019-02-19T16:34:17.163Z,20.73
2019-02-19T16:36:49.839Z,43.10
2019-02-19T16:39:20.164Z,30.43
2019-02-19T16:41:50.389Z,16.50
2019-02-19T16:44:27.716Z,14.13
2019-02-19T16:47:10.108Z,13.90
2019-02-19T16:49:43.265Z,16.47
2019-02-19T16:52:13.451Z,16.77
2019-02-19T16:55:09.921Z,16.23
2019-02-19T16:57:46.127Z,18.93
2019-02-19T17:00:28.580Z,14.47
2019-02-19T17:02:58.810Z,12.97
2019-02-19T17:05:44.381Z,12.90
2019-02-19T17:08:26.656Z,12.43
2019-02-19T17:11:06.077Z,11.97
2019-02-19T17:13:39.339Z,11.00
2019-02-19T17:16:09.529Z,11.90
2019-02-19T17:18:57.972Z,11.80
2019-02-19T17:21:34.041Z,11.63
2019-02-19T17:24:06.896Z,13.03
2019-02-19T17:26:52.129Z,12.67
2019-02-19T17:29:22.347Z,12.40
2019-02-19T17:32:01.381Z,13.17
2019-02-19T17:34:31.628Z,12.33
2019-02-19T17:37:07.967Z,13.33
2019-02-19T17:39:38.628Z,12.60
2019-02-19T17:42:08.824Z,12.73
2019-02-19T17:44:55.578Z,12.67
2019-02-19T17:47:25.968Z,13.67
2019-02-19T17:49:58.928Z,24.57
2019-02-19T17:52:43.992Z,19.37
2019-02-19T17:55:14.210Z,33.43
2019-02-19T17:57:47.560Z,21.73
2019-02-19T18:00:20.749Z,19.83
2019-02-19T18:02:51.083Z,28.10
2019-02-19T18:05:37.463Z,23.97
2019-02-19T18:08:15.101Z,18.87
2019-02-19T18:11:03.701Z,17.03
2019-02-19T18:13:33.883Z,17.67
2019-02-19T18:16:06.936Z,20.50
2019-02-19T18:18:37.238Z,17.13
2019-02-19T18:21:05.903Z,17.13
2019-02-19T18:23:34.455Z,19.17
2019-02-19T18:26:03.025Z,17.03
2019-02-19T18:28:31.575Z,18.37
2019-02-19T18:31:00.172Z,19.97
2019-02-19T18:33:28.728Z,20.53
2019-02-19T18:35:57.326Z,19.77
2019-02-19T18:38:25.959Z,19.47
2019-02-19T18:40:54.610Z,16.77
2019-02-19T18:43:23.115Z,17.70
2019-02-19T18:45:51.700Z,19.67
2019-02-19T18:48:20.295Z,18.50
2019-02-19T18:50:56.426Z,22.37
2019-02-19T18:53:19.174Z,22.87
2019-02-19T18:55:47.827Z,21.00
2019-02-19T18:58:16.412Z,21.03
2019-02-19T19:00:44.989Z,19.47
2019-02-19T19:03:13.560Z,19.07
2019-02-19T19:05:42.179Z,19.47
2019-02-19T19:08:10.732Z,17.17
2019-02-19T19:10:39.289Z,16.77
2019-02-19T19:13:07.861Z,16.70
2019-02-19T19:15:36.417Z,15.13
2019-02-19T19:18:05.067Z,14.90
2019-02-19T19:20:33.612Z,15.57
2019-02-19T19:23:02.213Z,16.87
2019-02-19T19:25:30.832Z,16.93
2019-02-19T19:27:59.599Z,16.80
2019-02-19T19:30:28.278Z,15.17
2019-02-19T19:32:56.856Z,15.43
2019-02-19T19:35:41.281Z,16.67
2019-02-19T19:38:09.845Z,15.70
2019-02-19T19:40:38.429Z,19.83
2019-02-19T19:43:07.051Z,19.77
2019-02-19T19:45:35.745Z,22.37
2019-02-19T19:48:04.388Z,23.47
2019-02-19T19:50:32.940Z,22.00
2019-02-19T19:53:01.545Z,21.30
2019-02-19T19:55:30.189Z,19.23
2019-02-19T19:57:58.761Z,22.03
2019-02-19T20:00:27.400Z,20.30
2019-02-19T20:02:55.956Z,19.03
2019-02-19T20:05:24.750Z,17.43
2019-02-19T20:07:53.359Z,18.57
2019-02-19T20:10:21.972Z,18.67
2019-02-19T20:12:50.580Z,20.67
2019-02-19T20:15:19.127Z,19.70
2019-02-19T20:17:47.708Z,19.33
2019-02-19T20:20:16.271Z,18.20
2019-02-19T20:22:44.868Z,17.30
2019-02-19T20:25:14.155Z,17.13
2019-02-19T20:27:42.760Z,18.30
2019-02-19T20:30:14.032Z,16.63
2019-02-19T20:32:42.678Z,16.60
2019-02-19T20:35:11.505Z,18.10
2019-02-19T20:37:40.330Z,16.83
2019-02-19T20:40:12.740Z,15.53
2019-02-19T20:42:41.523Z,14.47
2019-02-19T20:45:11.884Z,16.47
2019-02-19T20:47:40.569Z,16.73
2019-02-19T20:50:11.011Z,16.03
2019-02-19T20:52:39.645Z,16.63
2019-02-19T20:55:10.085Z,16.30
2019-02-19T20:57:38.687Z,18.13
2019-02-19T21:00:32.204Z,16.97
2019-02-19T21:03:00.784Z,17.80
2019-02-19T21:05:29.365Z,18.37
2019-02-19T21:07:57.985Z,17.73
2019-02-19T21:10:26.561Z,18.07
2019-02-19T21:12:55.117Z,17.60
2019-02-19T21:15:23.679Z,18.47
2019-02-19T21:17:52.228Z,18.40
2019-02-19T21:20:22.110Z,19.27
2019-02-19T21:22:50.760Z,20.13
2019-02-19T21:25:20.079Z,20.30
2019-02-19T21:27:48.588Z,22.90
2019-02-19T21:30:17.402Z,27.60
2019-02-19T21:32:45.951Z,32.23
2019-02-19T21:35:14.668Z,28.13
2019-02-19T21:37:43.320Z,35.10
2019-02-19T21:40:13.332Z,33.03
2019-02-19T21:42:41.906Z,32.23
2019-02-19T21:45:12.878Z,27.10
2019-02-19T21:47:41.538Z,26.00
2019-02-19T21:50:11.640Z,29.33
2019-02-19T21:52:40.362Z,28.30
2019-02-19T21:55:12.907Z,27.63
2019-02-19T21:57:41.529Z,24.93
2019-02-19T22:00:13.725Z,25.93
2019-02-19T22:02:42.374Z,25.57
2019-02-19T22:05:11.219Z,24.00
2019-02-19T22:07:39.770Z,21.03
2019-02-19T22:10:12.870Z,21.43
2019-02-19T22:12:41.507Z,19.67
2019-02-19T22:15:12.480Z,21.27
2019-02-19T22:17:41.068Z,20.27
2019-02-19T22:20:37.978Z,19.47
2019-02-19T22:23:06.900Z,17.83
2019-02-19T22:25:35.549Z,18.67
2019-02-19T22:28:04.299Z,19.17
2019-02-19T22:30:32.886Z,17.27
2019-02-19T22:33:01.440Z,18.93
2019-02-19T22:35:30.026Z,18.37
2019-02-19T22:37:58.604Z,19.20
2019-02-19T22:40:27.185Z,17.97
2019-02-19T22:42:55.745Z,17.10
2019-02-19T22:45:24.343Z,17.20
2019-02-19T22:47:53.633Z,17.97
2019-02-19T22:50:22.481Z,18.60
2019-02-19T22:52:51.209Z,18.20
2019-02-19T22:55:37.957Z,18.10
2019-02-19T22:58:06.639Z,16.03
2019-02-19T23:00:48.700Z,18.70
2019-02-19T23:03:22.068Z,17.23
2019-02-19T23:05:50.639Z,16.13
2019-02-19T23:08:19.201Z,17.67
2019-02-19T23:10:47.780Z,17.60
2019-02-19T23:13:16.331Z,17.70
2019-02-19T23:15:44.916Z,17.70
2019-02-19T23:18:13.468Z,17.07
2019-02-19T23:20:42.208Z,17.73
2019-02-19T23:23:10.764Z,17.40
2019-02-19T23:25:39.421Z,18.10
2019-02-19T23:28:08.039Z,16.77
2019-02-19T23:30:36.640Z,19.50
2019-02-19T23:33:05.279Z,19.47
2019-02-19T23:35:35.515Z,20.03
2019-02-19T23:38:04.231Z,22.13
2019-02-19T23:40:32.860Z,20.80
2019-02-19T23:43:01.433Z,20.30
2019-02-19T23:45:30.052Z,21.10
2019-02-19T23:47:58.629Z,18.37
2019-02-19T23:50:27.193Z,19.80
2019-02-19T23:52:55.776Z,18.23
2019-02-19T23:55:24.348Z,18.70
2019-02-19T23:57:52.909Z,20.67
